Terminal Aerodrome Forecast
Issued by NWS Albany, NY

Home | Current Version | Previous Version | Text Only | Print | Product List | Glossary On
Versions: 1 2 3 4 5 6 7 8 9 10 11 12 13 14 15 16 17 18 19 20 21 22 23 24 25 26
000
FTUS41 KALY 271734
TAFALB
TAF
KALB 271734Z 2718/2818 17006KT 5SM -SHRA OVC025
      TEMPO 2718/2721 2SM -SHRA BR OVC009
     FM272100 21006KT P6SM VCSH OVC030
     FM280000 VRB03KT P6SM SCT250
     FM280800 00000KT 1SM BR OVC003
     FM281200 00000KT P6SM BKN025
     FM281600 01004KT P6SM SCT250=

USA.gov is the U.S. government's official web portal to all federal, state and local government web resources and services.